sensor_id;sensor_type;location;lat;lon;timestamp;pressure;altitude;pressure_sealevel;temperature;humidity
41467;BME280;27205;53.690;19.948;2023-03-22T00:00:29;99790.52;;;3.65;69.73
41467;BME280;27205;53.690;19.948;2023-03-22T00:05:56;99785.67;;;3.66;70.02
41467;BME280;27205;53.690;19.948;2023-03-22T00:10:59;99782.73;;;3.68;70.30
41467;BME280;27205;53.690;19.948;2023-03-22T00:16:04;99776.83;;;3.65;70.25
41467;BME280;27205;53.690;19.948;2023-03-22T00:21:11;99773.07;;;3.63;70.25
41467;BME280;27205;53.690;19.948;2023-03-22T00:26:15;99762.73;;;3.59;70.47
41467;BME280;27205;53.690;19.948;2023-03-22T00:31:18;99758.56;;;3.58;70.53
41467;BME280;27205;53.690;19.948;2023-03-22T00:36:22;99759.65;;;3.58;70.84
41467;BME280;27205;53.690;19.948;2023-03-22T00:41:26;99762.29;;;3.65;71.21
41467;BME280;27205;53.690;19.948;2023-03-22T00:46:29;99760.16;;;3.78;71.33
41467;BME280;27205;53.690;19.948;2023-03-22T00:51:33;99759.22;;;3.92;71.29
41467;BME280;27205;53.690;19.948;2023-03-22T00:56:36;99751.13;;;4.09;71.55
41467;BME280;27205;53.690;19.948;2023-03-22T01:01:40;99750.52;;;4.28;71.66
41467;BME280;27205;53.690;19.948;2023-03-22T01:06:44;99745.66;;;4.48;71.93
41467;BME280;27205;53.690;19.948;2023-03-22T01:11:49;99738.53;;;4.65;72.04
41467;BME280;27205;53.690;19.948;2023-03-22T01:16:53;99728.19;;;4.85;72.27
41467;BME280;27205;53.690;19.948;2023-03-22T01:22:00;99720.17;;;4.97;72.15
41467;BME280;27205;53.690;19.948;2023-03-22T01:27:03;99715.95;;;5.12;72.08
41467;BME280;27205;53.690;19.948;2023-03-22T01:32:07;99707.39;;;5.26;72.08
41467;BME280;27205;53.690;19.948;2023-03-22T01:37:11;99700.15;;;5.44;72.42
41467;BME280;27205;53.690;19.948;2023-03-22T01:42:15;99698.84;;;5.76;72.88
41467;BME280;27205;53.690;19.948;2023-03-22T01:47:19;99690.55;;;6.03;73.10
41467;BME280;27205;53.690;19.948;2023-03-22T01:52:23;99685.47;;;6.26;72.88
41467;BME280;27205;53.690;19.948;2023-03-22T01:57:26;99669.27;;;6.43;73.01
41467;BME280;27205;53.690;19.948;2023-03-22T02:02:30;99668.64;;;6.59;73.05
41467;BME280;27205;53.690;19.948;2023-03-22T02:07:35;99663.58;;;6.73;73.19
41467;BME280;27205;53.690;19.948;2023-03-22T02:28:42;99645.28;;;6.99;73.45
41467;BME280;27205;53.690;19.948;2023-03-22T02:49:44;99633.40;;;6.73;74.05
41467;BME280;27205;53.690;19.948;2023-03-22T03:00:38;99637.17;;;6.56;74.09
41467;BME280;27205;53.690;19.948;2023-03-22T03:05:47;99632.54;;;6.45;73.99
41467;BME280;27205;53.690;19.948;2023-03-22T03:10:53;99636.20;;;6.40;74.41
41467;BME280;27205;53.690;19.948;2023-03-22T03:15:58;99635.16;;;6.36;74.47
41467;BME280;27205;53.690;19.948;2023-03-22T03:26:34;99623.35;;;6.42;74.55
41467;BME280;27205;53.690;19.948;2023-03-22T03:31:44;99620.42;;;6.47;74.92
41467;BME280;27205;53.690;19.948;2023-03-22T03:37:17;99623.82;;;6.52;75.27
41467;BME280;27205;53.690;19.948;2023-03-22T03:42:24;99628.62;;;6.59;75.31
41467;BME280;27205;53.690;19.948;2023-03-22T03:47:30;99628.73;;;6.65;75.35
41467;BME280;27205;53.690;19.948;2023-03-22T03:52:34;99629.05;;;6.68;75.75
41467;BME280;27205;53.690;19.948;2023-03-22T03:57:37;99627.73;;;6.70;75.86
41467;BME280;27205;53.690;19.948;2023-03-22T04:02:42;99633.38;;;6.75;75.73
41467;BME280;27205;53.690;19.948;2023-03-22T04:07:46;99623.69;;;6.81;76.11
41467;BME280;27205;53.690;19.948;2023-03-22T04:12:49;99623.31;;;6.90;76.03
41467;BME280;27205;53.690;19.948;2023-03-22T04:17:53;99621.66;;;7.00;76.25
41467;BME280;27205;53.690;19.948;2023-03-22T04:22:57;99626.00;;;7.08;76.25
41467;BME280;27205;53.690;19.948;2023-03-22T04:28:00;99620.81;;;7.16;76.36
41467;BME280;27205;53.690;19.948;2023-03-22T04:33:06;99624.52;;;7.25;76.51
41467;BME280;27205;53.690;19.948;2023-03-22T04:38:09;99619.70;;;7.33;76.56
41467;BME280;27205;53.690;19.948;2023-03-22T04:43:14;99623.54;;;7.40;76.75
41467;BME280;27205;53.690;19.948;2023-03-22T04:48:21;99619.04;;;7.52;76.51
41467;BME280;27205;53.690;19.948;2023-03-22T04:53:25;99611.25;;;7.61;76.71
41467;BME280;27205;53.690;19.948;2023-03-22T04:58:29;99611.13;;;7.70;76.65
41467;BME280;27205;53.690;19.948;2023-03-22T05:03:33;99607.09;;;7.83;76.77
41467;BME280;27205;53.690;19.948;2023-03-22T05:08:36;99604.98;;;7.95;76.84
41467;BME280;27205;53.690;19.948;2023-03-22T05:13:40;99597.91;;;8.08;76.92
41467;BME280;27205;53.690;19.948;2023-03-22T05:18:44;99596.45;;;8.24;76.97
41467;BME280;27205;53.690;19.948;2023-03-22T05:23:47;99585.42;;;8.39;77.17
41467;BME280;27205;53.690;19.948;2023-03-22T05:28:54;99583.39;;;8.54;77.22
41467;BME280;27205;53.690;19.948;2023-03-22T05:33:58;99574.79;;;8.64;77.38
41467;BME280;27205;53.690;19.948;2023-03-22T05:39:02;99574.77;;;8.79;77.42
41467;BME280;27205;53.690;19.948;2023-03-22T05:44:05;99570.02;;;8.94;77.42
41467;BME280;27205;53.690;19.948;2023-03-22T05:49:09;99567.94;;;9.01;77.21
41467;BME280;27205;53.690;19.948;2023-03-22T05:54:14;99566.09;;;9.05;77.29
41467;BME280;27205;53.690;19.948;2023-03-22T05:59:17;99569.50;;;9.15;77.64
41467;BME280;27205;53.690;19.948;2023-03-22T06:04:21;99569.29;;;9.28;77.38
41467;BME280;27205;53.690;19.948;2023-03-22T06:09:24;99563.70;;;9.39;77.45
41467;BME280;27205;53.690;19.948;2023-03-22T06:14:27;99563.16;;;9.50;77.28
41467;BME280;27205;53.690;19.948;2023-03-22T06:19:31;99561.42;;;9.53;77.48
41467;BME280;27205;53.690;19.948;2023-03-22T06:24:35;99563.44;;;9.60;77.51
41467;BME280;27205;53.690;19.948;2023-03-22T06:29:38;99563.35;;;9.63;77.53
41467;BME280;27205;53.690;19.948;2023-03-22T06:34:42;99558.49;;;9.64;77.57
41467;BME280;27205;53.690;19.948;2023-03-22T06:39:46;99550.77;;;9.67;77.51
41467;BME280;27205;53.690;19.948;2023-03-22T06:44:49;99543.55;;;9.71;77.60
41467;BME280;27205;53.690;19.948;2023-03-22T06:49:53;99548.53;;;9.81;77.49
41467;BME280;27205;53.690;19.948;2023-03-22T06:54:57;99545.05;;;9.88;77.70
41467;BME280;27205;53.690;19.948;2023-03-22T07:00:00;99544.27;;;9.97;77.81
41467;BME280;27205;53.690;19.948;2023-03-22T07:05:04;99544.26;;;10.09;78.10
41467;BME280;27205;53.690;19.948;2023-03-22T07:10:08;99548.77;;;10.20;78.08
41467;BME280;27205;53.690;19.948;2023-03-22T07:15:12;99548.73;;;10.32;77.97
41467;BME280;27205;53.690;19.948;2023-03-22T07:20:16;99546.14;;;10.30;77.90
41467;BME280;27205;53.690;19.948;2023-03-22T07:25:20;99543.89;;;10.27;77.85
41467;BME280;27205;53.690;19.948;2023-03-22T07:30:25;99535.30;;;10.22;78.20
41467;BME280;27205;53.690;19.948;2023-03-22T07:35:29;99528.65;;;10.38;77.94
41467;BME280;27205;53.690;19.948;2023-03-22T07:40:32;99522.48;;;10.66;77.99
41467;BME280;27205;53.690;19.948;2023-03-22T07:45:36;99521.41;;;10.75;78.06
41467;BME280;27205;53.690;19.948;2023-03-22T07:50:39;99519.71;;;10.76;78.41
41467;BME280;27205;53.690;19.948;2023-03-22T07:55:43;99523.80;;;10.74;77.90
41467;BME280;27205;53.690;19.948;2023-03-22T08:00:47;99525.49;;;10.66;78.38
41467;BME280;27205;53.690;19.948;2023-03-22T08:05:52;99520.05;;;10.53;78.19
41467;BME280;27205;53.690;19.948;2023-03-22T08:10:55;99516.79;;;10.38;78.43
41467;BME280;27205;53.690;19.948;2023-03-22T08:15:59;99509.88;;;10.28;78.42
41467;BME280;27205;53.690;19.948;2023-03-22T08:21:03;99507.31;;;10.24;78.55
41467;BME280;27205;53.690;19.948;2023-03-22T08:26:07;99504.90;;;10.20;78.65
41467;BME280;27205;53.690;19.948;2023-03-22T08:31:13;99503.02;;;10.12;78.43
41467;BME280;27205;53.690;19.948;2023-03-22T08:36:20;99496.98;;;10.03;78.81
41467;BME280;27205;53.690;19.948;2023-03-22T08:41:27;99497.45;;;9.94;79.07
41467;BME280;27205;53.690;19.948;2023-03-22T08:46:31;99498.76;;;9.91;79.40
41467;BME280;27205;53.690;19.948;2023-03-22T08:51:34;99495.92;;;9.94;79.13
41467;BME280;27205;53.690;19.948;2023-03-22T08:56:38;99495.88;;;10.03;79.20
41467;BME280;27205;53.690;19.948;2023-03-22T09:01:42;99496.26;;;10.11;79.40
41467;BME280;27205;53.690;19.948;2023-03-22T09:06:45;99500.32;;;10.15;79.49
41467;BME280;27205;53.690;19.948;2023-03-22T09:11:49;99499.43;;;10.13;79.57
41467;BME280;27205;53.690;19.948;2023-03-22T09:16:52;99498.92;;;10.13;79.54
41467;BME280;27205;53.690;19.948;2023-03-22T09:21:56;99496.81;;;10.18;79.82
41467;BME280;27205;53.690;19.948;2023-03-22T09:26:59;99495.03;;;10.22;79.63
41467;BME280;27205;53.690;19.948;2023-03-22T09:32:03;99490.61;;;10.22;79.76
41467;BME280;27205;53.690;19.948;2023-03-22T09:37:07;99493.90;;;10.18;80.17
41467;BME280;27205;53.690;19.948;2023-03-22T09:42:37;99489.95;;;10.21;80.35
41467;BME280;27205;53.690;19.948;2023-03-22T09:47:44;99491.42;;;10.43;80.53
41467;BME280;27205;53.690;19.948;2023-03-22T09:52:49;99488.69;;;10.69;80.21
41467;BME280;27205;53.690;19.948;2023-03-22T10:09:13;99470.39;;;11.04;80.67
41467;BME280;27205;53.690;19.948;2023-03-22T10:19:55;99467.92;;;11.36;80.55
41467;BME280;27205;53.690;19.948;2023-03-22T10:25:00;99468.13;;;11.37;80.68
41467;BME280;27205;53.690;19.948;2023-03-22T10:30:09;99471.63;;;11.45;80.67
41467;BME280;27205;53.690;19.948;2023-03-22T10:35:16;99472.02;;;11.63;80.77
41467;BME280;27205;53.690;19.948;2023-03-22T10:40:32;99476.19;;;11.74;80.50
41467;BME280;27205;53.690;19.948;2023-03-22T10:45:36;99479.69;;;11.79;80.38
41467;BME280;27205;53.690;19.948;2023-03-22T10:50:43;99475.80;;;11.70;80.35
41467;BME280;27205;53.690;19.948;2023-03-22T10:55:47;99475.44;;;11.59;80.58
41467;BME280;27205;53.690;19.948;2023-03-22T11:06:31;99457.72;;;11.84;80.60
41467;BME280;27205;53.690;19.948;2023-03-22T11:11:57;99460.45;;;11.86;80.44
41467;BME280;27205;53.690;19.948;2023-03-22T11:17:08;99456.83;;;11.85;80.26
41467;BME280;27205;53.690;19.948;2023-03-22T11:22:36;99453.90;;;11.77;80.14
41467;BME280;27205;53.690;19.948;2023-03-22T11:33:20;99454.39;;;11.89;80.62
41467;BME280;27205;53.690;19.948;2023-03-22T11:38:33;99449.52;;;11.75;80.37
41467;BME280;27205;53.690;19.948;2023-03-22T11:43:39;99447.05;;;11.69;80.60
41467;BME280;27205;53.690;19.948;2023-03-22T11:48:48;99440.38;;;11.65;80.65
41467;BME280;27205;53.690;19.948;2023-03-22T11:54:08;99441.54;;;11.70;80.83
41467;BME280;27205;53.690;19.948;2023-03-22T11:59:14;99443.91;;;11.70;81.07
41467;BME280;27205;53.690;19.948;2023-03-22T12:04:23;99437.02;;;11.68;80.86
41467;BME280;27205;53.690;19.948;2023-03-22T12:15:16;99431.63;;;11.83;81.01
41467;BME280;27205;53.690;19.948;2023-03-22T12:26:33;99420.23;;;11.96;81.52
41467;BME280;27205;53.690;19.948;2023-03-22T12:31:16;99407.59;;;11.96;81.41
41467;BME280;27205;53.690;19.948;2023-03-22T12:36:29;99401.77;;;12.06;81.38
41467;BME280;27205;53.690;19.948;2023-03-22T12:41:40;99403.90;;;12.23;81.33
41467;BME280;27205;53.690;19.948;2023-03-22T12:52:20;99406.67;;;12.47;81.23
41467;BME280;27205;53.690;19.948;2023-03-22T12:57:29;99404.98;;;12.48;81.20
41467;BME280;27205;53.690;19.948;2023-03-22T13:02:34;99401.39;;;12.45;81.05
41467;BME280;27205;53.690;19.948;2023-03-22T13:23:56;99392.39;;;12.31;81.41
41467;BME280;27205;53.690;19.948;2023-03-22T13:29:06;99390.45;;;12.36;81.16
41467;BME280;27205;53.690;19.948;2023-03-22T13:34:37;99390.69;;;12.33;81.34
41467;BME280;27205;53.690;19.948;2023-03-22T13:39:42;99390.95;;;12.33;81.34
41467;BME280;27205;53.690;19.948;2023-03-22T13:44:56;99387.11;;;12.40;81.42
41467;BME280;27205;53.690;19.948;2023-03-22T13:50:27;99385.47;;;12.42;81.54
41467;BME280;27205;53.690;19.948;2023-03-22T13:55:46;99378.34;;;12.56;81.64
41467;BME280;27205;53.690;19.948;2023-03-22T14:00:59;99377.69;;;12.68;81.94
41467;BME280;27205;53.690;19.948;2023-03-22T14:06:19;99369.36;;;12.91;82.05
41467;BME280;27205;53.690;19.948;2023-03-22T14:12:04;99362.61;;;13.70;81.77
41467;BME280;27205;53.690;19.948;2023-03-22T14:17:28;99360.55;;;14.44;81.23
41467;BME280;27205;53.690;19.948;2023-03-22T14:22:37;99352.98;;;14.72;80.81
41467;BME280;27205;53.690;19.948;2023-03-22T14:27:41;99351.44;;;14.78;80.52
41467;BME280;27205;53.690;19.948;2023-03-22T14:32:44;99346.61;;;15.16;80.27
41467;BME280;27205;53.690;19.948;2023-03-22T14:37:51;99343.45;;;16.03;79.60
41467;BME280;27205;53.690;19.948;2023-03-22T14:42:54;99332.19;;;16.34;79.76
41467;BME280;27205;53.690;19.948;2023-03-22T14:47:56;99328.96;;;16.12;79.80
41467;BME280;27205;53.690;19.948;2023-03-22T14:52:59;99311.49;;;16.03;79.48
41467;BME280;27205;53.690;19.948;2023-03-22T14:58:02;99297.63;;;16.10;79.10
41467;BME280;27205;53.690;19.948;2023-03-22T15:03:26;99303.40;;;15.95;79.48
41467;BME280;27205;53.690;19.948;2023-03-22T15:08:31;99296.58;;;15.76;79.26
41467;BME280;27205;53.690;19.948;2023-03-22T15:13:36;99291.14;;;15.65;79.42
41467;BME280;27205;53.690;19.948;2023-03-22T15:18:39;99283.77;;;15.50;78.80
41467;BME280;27205;53.690;19.948;2023-03-22T15:23:53;99281.21;;;15.64;79.07
41467;BME280;27205;53.690;19.948;2023-03-22T15:28:57;99286.30;;;15.70;78.75
41467;BME280;27205;53.690;19.948;2023-03-22T15:34:02;99287.36;;;15.59;78.47
41467;BME280;27205;53.690;19.948;2023-03-22T15:39:17;99290.04;;;15.22;78.58
41467;BME280;27205;53.690;19.948;2023-03-22T15:44:32;99295.77;;;14.82;78.60
41467;BME280;27205;53.690;19.948;2023-03-22T16:00:01;99288.89;;;13.97;78.73
41467;BME280;27205;53.690;19.948;2023-03-22T16:05:11;99292.47;;;13.75;79.01
41467;BME280;27205;53.690;19.948;2023-03-22T16:10:19;99293.10;;;13.61;79.07
41467;BME280;27205;53.690;19.948;2023-03-22T16:15:30;99289.70;;;13.45;79.15
41467;BME280;27205;53.690;19.948;2023-03-22T16:20:32;99284.48;;;13.36;79.30
41467;BME280;27205;53.690;19.948;2023-03-22T16:25:35;99287.30;;;13.26;79.37
41467;BME280;27205;53.690;19.948;2023-03-22T16:30:38;99287.77;;;13.18;79.56
41467;BME280;27205;53.690;19.948;2023-03-22T16:35:41;99281.50;;;13.06;79.60
41467;BME280;27205;53.690;19.948;2023-03-22T16:40:46;99279.70;;;12.94;79.60
41467;BME280;27205;53.690;19.948;2023-03-22T16:45:48;99280.55;;;12.78;79.72
41467;BME280;27205;53.690;19.948;2023-03-22T16:50:50;99283.30;;;12.67;79.68
41467;BME280;27205;53.690;19.948;2023-03-22T16:55:53;99281.31;;;12.57;80.02
41467;BME280;27205;53.690;19.948;2023-03-22T17:00:55;99294.85;;;12.51;80.14
41467;BME280;27205;53.690;19.948;2023-03-22T17:05:58;99302.42;;;12.44;80.42
41467;BME280;27205;53.690;19.948;2023-03-22T17:11:00;99298.98;;;12.39;80.28
41467;BME280;27205;53.690;19.948;2023-03-22T17:16:02;99302.59;;;12.34;80.54
41467;BME280;27205;53.690;19.948;2023-03-22T17:21:05;99300.76;;;12.27;80.45
41467;BME280;27205;53.690;19.948;2023-03-22T17:26:07;99303.95;;;12.24;80.65
41467;BME280;27205;53.690;19.948;2023-03-22T17:31:13;99301.86;;;12.17;80.96
41467;BME280;27205;53.690;19.948;2023-03-22T17:36:16;99301.16;;;12.16;81.11
41467;BME280;27205;53.690;19.948;2023-03-22T17:41:18;99294.88;;;12.15;80.94
41467;BME280;27205;53.690;19.948;2023-03-22T17:46:21;99298.33;;;12.13;81.28
41467;BME280;27205;53.690;19.948;2023-03-22T17:51:23;99300.03;;;12.11;81.17
41467;BME280;27205;53.690;19.948;2023-03-22T17:56:25;99299.58;;;12.09;81.58
41467;BME280;27205;53.690;19.948;2023-03-22T18:01:28;99301.84;;;12.10;81.44
41467;BME280;27205;53.690;19.948;2023-03-22T18:06:30;99298.31;;;12.07;81.74
41467;BME280;27205;53.690;19.948;2023-03-22T18:11:32;99303.37;;;12.05;81.83
41467;BME280;27205;53.690;19.948;2023-03-22T18:16:35;99296.19;;;12.07;81.75
41467;BME280;27205;53.690;19.948;2023-03-22T18:21:37;99291.84;;;12.07;82.24
41467;BME280;27205;53.690;19.948;2023-03-22T18:26:39;99285.60;;;12.06;82.27
41467;BME280;27205;53.690;19.948;2023-03-22T18:31:41;99282.50;;;12.08;82.47
41467;BME280;27205;53.690;19.948;2023-03-22T18:36:47;99279.30;;;12.08;82.68
41467;BME280;27205;53.690;19.948;2023-03-22T18:41:49;99280.44;;;12.08;82.49
41467;BME280;27205;53.690;19.948;2023-03-22T18:46:52;99278.98;;;12.07;82.69
41467;BME280;27205;53.690;19.948;2023-03-22T18:51:54;99272.40;;;12.03;82.82
41467;BME280;27205;53.690;19.948;2023-03-22T18:56:57;99268.89;;;12.02;82.82
41467;BME280;27205;53.690;19.948;2023-03-22T19:02:01;99263.34;;;11.99;83.06
41467;BME280;27205;53.690;19.948;2023-03-22T19:07:03;99258.52;;;12.01;83.10
41467;BME280;27205;53.690;19.948;2023-03-22T19:12:06;99257.35;;;12.05;82.95
41467;BME280;27205;53.690;19.948;2023-03-22T19:17:08;99255.55;;;12.07;83.15
41467;BME280;27205;53.690;19.948;2023-03-22T19:22:11;99252.34;;;12.08;83.15
41467;BME280;27205;53.690;19.948;2023-03-22T19:27:13;99246.02;;;12.10;83.10
41467;BME280;27205;53.690;19.948;2023-03-22T19:32:15;99236.96;;;12.14;82.91
41467;BME280;27205;53.690;19.948;2023-03-22T19:37:18;99234.77;;;12.16;83.14
41467;BME280;27205;53.690;19.948;2023-03-22T19:42:20;99232.43;;;12.13;83.12
41467;BME280;27205;53.690;19.948;2023-03-22T19:47:22;99228.71;;;12.25;82.71
41467;BME280;27205;53.690;19.948;2023-03-22T19:52:25;99222.27;;;12.20;83.14
41467;BME280;27205;53.690;19.948;2023-03-22T19:57:28;99218.16;;;12.21;83.40
41467;BME280;27205;53.690;19.948;2023-03-22T20:02:30;99217.02;;;12.25;83.27
41467;BME280;27205;53.690;19.948;2023-03-22T20:07:32;99216.46;;;12.28;83.28
41467;BME280;27205;53.690;19.948;2023-03-22T20:12:34;99212.86;;;12.31;83.11
41467;BME280;27205;53.690;19.948;2023-03-22T20:17:36;99213.81;;;12.28;83.29
41467;BME280;27205;53.690;19.948;2023-03-22T20:22:42;99209.19;;;12.27;83.37
41467;BME280;27205;53.690;19.948;2023-03-22T20:27:50;99207.77;;;12.26;83.20
41467;BME280;27205;53.690;19.948;2023-03-22T20:32:54;99201.85;;;12.20;83.16
41467;BME280;27205;53.690;19.948;2023-03-22T20:37:57;99198.15;;;12.10;83.29
41467;BME280;27205;53.690;19.948;2023-03-22T20:42:59;99199.69;;;12.04;83.33
41467;BME280;27205;53.690;19.948;2023-03-22T20:48:02;99192.82;;;12.05;83.15
41467;BME280;27205;53.690;19.948;2023-03-22T20:53:06;99188.05;;;12.05;83.08
41467;BME280;27205;53.690;19.948;2023-03-22T20:58:09;99187.70;;;12.02;83.16
41467;BME280;27205;53.690;19.948;2023-03-22T21:03:11;99185.23;;;12.02;82.99
41467;BME280;27205;53.690;19.948;2023-03-22T21:08:14;99180.48;;;12.06;82.80
41467;BME280;27205;53.690;19.948;2023-03-22T21:13:16;99169.34;;;12.11;82.90
41467;BME280;27205;53.690;19.948;2023-03-22T21:18:18;99172.04;;;12.21;82.90
41467;BME280;27205;53.690;19.948;2023-03-22T21:23:22;99168.52;;;12.23;82.85
41467;BME280;27205;53.690;19.948;2023-03-22T21:28:25;99164.45;;;12.22;82.85
41467;BME280;27205;53.690;19.948;2023-03-22T21:33:27;99161.63;;;12.18;82.93
41467;BME280;27205;53.690;19.948;2023-03-22T21:38:30;99155.50;;;12.14;83.03
41467;BME280;27205;53.690;19.948;2023-03-22T21:43:41;99155.98;;;12.08;82.70
41467;BME280;27205;53.690;19.948;2023-03-22T21:48:44;99156.16;;;11.98;83.01
41467;BME280;27205;53.690;19.948;2023-03-22T21:53:46;99162.57;;;11.91;82.76
41467;BME280;27205;53.690;19.948;2023-03-22T21:58:49;99163.05;;;11.83;82.74
41467;BME280;27205;53.690;19.948;2023-03-22T22:03:52;99160.66;;;11.75;82.71
41467;BME280;27205;53.690;19.948;2023-03-22T22:08:55;99157.33;;;11.70;82.50
41467;BME280;27205;53.690;19.948;2023-03-22T22:13:58;99155.00;;;11.65;82.56
41467;BME280;27205;53.690;19.948;2023-03-22T22:19:01;99156.08;;;11.60;82.71
41467;BME280;27205;53.690;19.948;2023-03-22T22:24:03;99148.39;;;11.56;82.88
41467;BME280;27205;53.690;19.948;2023-03-22T22:29:06;99147.00;;;11.58;82.72
41467;BME280;27205;53.690;19.948;2023-03-22T22:34:09;99145.08;;;11.56;82.65
41467;BME280;27205;53.690;19.948;2023-03-22T22:39:12;99142.63;;;11.55;82.87
41467;BME280;27205;53.690;19.948;2023-03-22T22:44:14;99140.41;;;11.52;83.01
41467;BME280;27205;53.690;19.948;2023-03-22T22:49:17;99141.65;;;11.54;83.14
41467;BME280;27205;53.690;19.948;2023-03-22T22:54:19;99141.48;;;11.56;83.09
41467;BME280;27205;53.690;19.948;2023-03-22T22:59:21;99134.61;;;11.58;83.06
41467;BME280;27205;53.690;19.948;2023-03-22T23:04:23;99129.45;;;11.61;83.04
41467;BME280;27205;53.690;19.948;2023-03-22T23:09:26;99124.05;;;11.63;83.10
41467;BME280;27205;53.690;19.948;2023-03-22T23:14:28;99118.85;;;11.65;83.04
41467;BME280;27205;53.690;19.948;2023-03-22T23:19:33;99117.09;;;11.64;82.88
41467;BME280;27205;53.690;19.948;2023-03-22T23:24:39;99118.45;;;11.64;83.04
41467;BME280;27205;53.690;19.948;2023-03-22T23:29:44;99120.68;;;11.62;83.02
41467;BME280;27205;53.690;19.948;2023-03-22T23:34:46;99112.77;;;11.62;82.73
41467;BME280;27205;53.690;19.948;2023-03-22T23:39:50;99113.77;;;11.63;82.85
41467;BME280;27205;53.690;19.948;2023-03-22T23:44:52;99116.39;;;11.64;82.87
41467;BME280;27205;53.690;19.948;2023-03-22T23:49:54;99111.31;;;11.67;82.69
41467;BME280;27205;53.690;19.948;2023-03-22T23:54:57;99102.96;;;11.70;82.85
41467;BME280;27205;53.690;19.948;2023-03-22T23:59:59;99097.15;;;11.73;82.51
